createdAt,value
2019-04-23T00:01:08.018Z,3.00
2019-04-23T00:02:04.009Z,2.60
2019-04-23T00:02:58.829Z,2.70
2019-04-23T00:04:03.760Z,2.30
2019-04-23T00:04:55.562Z,2.90
2019-04-23T00:06:06.731Z,2.80
2019-04-23T00:07:10.725Z,2.70
2019-04-23T00:08:23.341Z,2.60
2019-04-23T00:10:04.544Z,2.60
2019-04-23T00:11:08.672Z,2.70
2019-04-23T00:12:01.804Z,3.20
2019-04-23T00:13:12.867Z,2.60
2019-04-23T00:15:08.692Z,2.90
2019-04-23T00:16:03.463Z,2.90
2019-04-23T00:17:01.117Z,2.80
2019-04-23T00:18:04.133Z,2.70
2019-04-23T00:18:59.342Z,2.60
2019-04-23T00:20:06.454Z,2.90
2019-04-23T00:20:57.632Z,2.90
2019-04-23T00:23:05.047Z,3.00
2019-04-23T00:24:17.580Z,2.90
2019-04-23T00:25:25.632Z,3.00
2019-04-23T00:27:05.854Z,2.70
2019-04-23T00:28:06.528Z,3.10
2019-04-23T00:29:05.420Z,2.70
2019-04-23T00:30:04.457Z,2.60
2019-04-23T00:31:18.501Z,3.00
2019-04-23T00:32:04.811Z,3.20
2019-04-23T00:33:07.487Z,2.90
2019-04-23T00:34:04.156Z,2.90
2019-04-23T00:35:12.643Z,3.10
2019-04-23T00:35:56.114Z,3.10
2019-04-23T00:37:01.592Z,2.60
2019-04-23T00:38:04.999Z,2.80
2019-04-23T00:38:54.271Z,3.40
2019-04-23T00:39:56.766Z,3.00
2019-04-23T00:40:57.661Z,2.90
2019-04-23T00:41:58.686Z,2.70
2019-04-23T00:43:02.012Z,3.00
2019-04-23T00:44:02.952Z,3.60
2019-04-23T00:44:56.270Z,2.90
2019-04-23T00:45:55.076Z,3.10
2019-04-23T00:47:00.779Z,2.80
2019-04-23T00:47:54.703Z,3.00
2019-04-23T00:49:07.427Z,3.30
2019-04-23T00:50:08.611Z,3.20
2019-04-23T00:51:09.996Z,3.30
2019-04-23T00:52:00.735Z,3.10
2019-04-23T00:53:01.949Z,3.30
2019-04-23T00:53:58.700Z,3.40
2019-04-23T00:55:07.266Z,3.90
2019-04-23T00:57:00.766Z,3.10
2019-04-23T00:58:08.491Z,3.40
2019-04-23T00:59:01.047Z,3.60
2019-04-23T01:00:03.455Z,3.20
2019-04-23T01:00:58.552Z,3.30
2019-04-23T01:02:59.056Z,3.70
2019-04-23T01:04:02.285Z,3.70
2019-04-23T01:05:08.547Z,3.20
2019-04-23T01:06:04.600Z,3.30
2019-04-23T01:07:00.288Z,3.50
2019-04-23T01:07:58.137Z,3.10
2019-04-23T01:09:25.764Z,3.30
2019-04-23T01:10:01.154Z,3.40
2019-04-23T01:11:59.400Z,3.20
2019-04-23T01:13:00.067Z,3.40
2019-04-23T01:13:54.030Z,3.20
2019-04-23T01:15:02.751Z,3.70
2019-04-23T01:15:59.611Z,3.40
2019-04-23T01:17:01.801Z,3.50
2019-04-23T01:18:08.122Z,3.50
2019-04-23T01:20:17.618Z,3.60
2019-04-23T01:20:52.924Z,3.60
2019-04-23T01:21:38.949Z,3.30
2019-04-23T01:22:37.953Z,3.70
2019-04-23T01:23:44.535Z,3.10
2019-04-23T01:24:40.350Z,3.70
2019-04-23T01:25:50.105Z,3.60
2019-04-23T01:27:18.468Z,3.60
2019-04-23T01:28:05.851Z,3.40
2019-04-23T01:29:01.410Z,3.60
2019-04-23T01:31:09.359Z,3.30
2019-04-23T01:31:58.886Z,3.30
2019-04-23T01:33:03.313Z,4.00
2019-04-23T01:34:07.976Z,3.60
2019-04-23T01:35:12.863Z,3.70
2019-04-23T01:36:16.150Z,3.40
2019-04-23T01:37:01.092Z,3.30
2019-04-23T01:37:59.430Z,3.40
2019-04-23T01:39:06.217Z,3.40
2019-04-23T01:40:03.757Z,3.70
2019-04-23T01:41:07.795Z,3.90
2019-04-23T01:42:24.023Z,3.90
2019-04-23T01:43:05.495Z,3.80
2019-04-23T01:43:58.225Z,3.60
2019-04-23T01:45:06.997Z,3.80
2019-04-23T01:46:04.592Z,3.80
2019-04-23T01:47:05.935Z,3.80
2019-04-23T01:48:00.055Z,3.50
2019-04-23T01:49:07.770Z,4.20
2019-04-23T01:50:09.672Z,3.60
2019-04-23T01:50:57.509Z,3.80
2019-04-23T01:52:12.911Z,3.80
2019-04-23T01:53:12.298Z,4.10
2019-04-23T01:54:06.917Z,3.90
2019-04-23T01:55:08.127Z,4.10
2019-04-23T01:56:21.073Z,4.00
2019-04-23T01:57:06.290Z,3.80
2019-04-23T01:58:23.749Z,4.10
2019-04-23T01:59:05.108Z,4.30
2019-04-23T02:00:08.876Z,3.80
2019-04-23T02:02:08.651Z,4.10
2019-04-23T02:03:03.674Z,4.10
2019-04-23T02:05:09.742Z,4.00
2019-04-23T02:07:08.452Z,4.20
2019-04-23T02:08:03.516Z,4.00
2019-04-23T02:09:10.165Z,3.90
2019-04-23T02:10:08.343Z,4.30
2019-04-23T02:11:10.514Z,4.10
2019-04-23T02:12:04.422Z,3.90
2019-04-23T02:14:01.707Z,4.00
2019-04-23T02:15:03.690Z,4.40
2019-04-23T02:16:01.321Z,4.50
2019-04-23T02:17:00.144Z,4.40
2019-04-23T02:18:05.528Z,3.80
2019-04-23T02:19:07.697Z,4.40
2019-04-23T02:20:14.124Z,4.50
2019-04-23T02:20:59.539Z,4.30
2019-04-23T02:22:05.074Z,4.10
2019-04-23T02:23:14.930Z,3.90
2019-04-23T02:23:57.203Z,4.10
2019-04-23T02:25:02.401Z,4.20
2019-04-23T02:26:03.011Z,4.20
2019-04-23T02:27:05.950Z,4.50
2019-04-23T02:28:07.521Z,4.00
2019-04-23T02:29:28.753Z,4.70
2019-04-23T02:30:15.146Z,4.30
2019-04-23T02:31:21.383Z,4.60
2019-04-23T02:33:19.644Z,4.60
2019-04-23T02:34:21.338Z,4.30
2019-04-23T02:35:38.638Z,4.60
2019-04-23T02:37:14.971Z,4.70
2019-04-23T02:40:13.599Z,4.90
2019-04-23T02:41:13.182Z,4.70
2019-04-23T02:43:12.662Z,5.00
2019-04-23T02:45:10.231Z,4.50
2019-04-23T02:46:06.094Z,5.10
2019-04-23T02:47:23.558Z,4.90
2019-04-23T02:49:22.097Z,5.20
2019-04-23T02:50:29.654Z,4.80
2019-04-23T02:51:12.535Z,5.00
2019-04-23T02:52:21.361Z,4.90
2019-04-23T02:53:20.841Z,4.80
2019-04-23T02:54:16.027Z,5.00
2019-04-23T02:55:29.549Z,4.80
2019-04-23T02:56:24.181Z,5.50
2019-04-23T02:57:08.900Z,5.30
2019-04-23T02:58:11.002Z,5.10
2019-04-23T03:02:24.076Z,5.00
2019-04-23T03:06:05.937Z,5.60
2019-04-23T03:07:16.168Z,5.20
2019-04-23T03:08:06.329Z,5.20
2019-04-23T03:09:13.002Z,5.30
2019-04-23T03:10:09.983Z,5.50
2019-04-23T03:11:24.988Z,5.40
2019-04-23T03:13:19.813Z,5.60
2019-04-23T03:14:12.094Z,6.10
2019-04-23T03:16:15.541Z,6.10
2019-04-23T03:18:25.858Z,5.60
2019-04-23T03:19:11.311Z,5.90
2019-04-23T03:20:14.726Z,5.50
2019-04-23T03:22:15.359Z,5.90
2019-04-23T03:23:17.112Z,6.00
2019-04-23T03:25:10.688Z,6.40
2019-04-23T03:26:14.091Z,5.90
2019-04-23T03:27:17.047Z,6.40
2019-04-23T03:28:11.917Z,6.00
2019-04-23T03:29:16.708Z,6.40
2019-04-23T03:34:50.224Z,6.40
2019-04-23T03:39:03.074Z,6.30
2019-04-23T03:41:17.244Z,6.70
2019-04-23T03:42:12.010Z,7.20
2019-04-23T03:43:19.411Z,6.70
2019-04-23T03:44:06.640Z,6.60
2019-04-23T03:46:16.159Z,7.00
2019-04-23T03:47:16.288Z,7.00
2019-04-23T03:48:16.792Z,7.10
2019-04-23T03:49:19.523Z,7.00
2019-04-23T03:51:03.154Z,8.10
2019-04-23T03:52:23.265Z,7.40
2019-04-23T03:53:03.469Z,7.90
2019-04-23T03:54:26.220Z,7.60
2019-04-23T03:55:10.205Z,7.60
2019-04-23T03:56:12.454Z,7.50
2019-04-23T03:58:10.615Z,7.20
2019-04-23T03:59:10.713Z,7.70
2019-04-23T04:00:12.626Z,8.40
2019-04-23T04:01:11.964Z,7.30
2019-04-23T04:02:20.847Z,8.00
2019-04-23T04:05:17.299Z,8.00
2019-04-23T04:06:20.753Z,8.20
2019-04-23T04:07:22.594Z,8.60
2019-04-23T04:08:13.761Z,8.50
2019-04-23T04:09:21.126Z,8.50
2019-04-23T04:10:10.722Z,8.40
2019-04-23T04:11:11.399Z,8.70
2019-04-23T04:12:12.489Z,8.50
2019-04-23T04:13:07.275Z,8.50
2019-04-23T04:14:36.331Z,8.50
2019-04-23T04:15:18.340Z,9.00
2019-04-23T04:17:13.797Z,8.50
2019-04-23T04:18:28.624Z,9.10
2019-04-23T04:19:16.792Z,9.00
2019-04-23T04:22:21.726Z,9.00
2019-04-23T04:24:21.800Z,8.70
2019-04-23T04:25:06.742Z,9.40
2019-04-23T04:27:29.147Z,8.90
2019-04-23T04:28:14.632Z,9.60
2019-04-23T04:29:15.156Z,9.20
2019-04-23T04:31:05.734Z,9.20
2019-04-23T04:33:15.061Z,9.60
2019-04-23T04:34:21.406Z,9.70
2019-04-23T04:35:20.962Z,10.10
2019-04-23T04:36:13.946Z,10.10
2019-04-23T04:38:20.232Z,10.00
2019-04-23T04:38:59.066Z,9.50
2019-04-23T04:40:23.380Z,10.40
2019-04-23T04:41:09.593Z,10.10
2019-04-23T04:43:24.869Z,10.50
2019-04-23T04:44:38.238Z,9.90
2019-04-23T04:45:24.752Z,10.10
2019-04-23T04:46:34.891Z,9.50
2019-04-23T04:47:33.888Z,9.90
2019-04-23T04:47:58.859Z,9.70
2019-04-23T04:50:06.493Z,10.50
2019-04-23T04:52:22.631Z,10.50
2019-04-23T04:53:22.838Z,10.30
2019-04-23T04:54:21.499Z,10.60
2019-04-23T04:55:21.037Z,9.90
2019-04-23T04:56:14.512Z,11.00
2019-04-23T04:57:10.234Z,10.50
2019-04-23T04:58:07.113Z,10.50
2019-04-23T05:00:12.873Z,10.90
2019-04-23T05:01:13.761Z,11.00
2019-04-23T05:03:22.238Z,10.20
2019-04-23T05:04:14.511Z,10.20
2019-04-23T05:05:20.697Z,10.90
2019-04-23T05:06:16.204Z,11.20
2019-04-23T05:07:10.992Z,10.90
2019-04-23T05:08:11.339Z,10.80
2019-04-23T05:12:17.204Z,10.60
2019-04-23T05:13:22.191Z,10.70
2019-04-23T05:14:23.673Z,10.70
2019-04-23T05:16:07.724Z,11.60
2019-04-23T05:17:11.078Z,11.30
2019-04-23T05:18:17.443Z,11.50
2019-04-23T05:19:15.535Z,11.60
2019-04-23T05:20:04.613Z,11.70
2019-04-23T05:24:57.221Z,12.00
2019-04-23T05:26:02.827Z,11.40
2019-04-23T05:27:03.341Z,11.70
2019-04-23T05:28:08.238Z,11.50
2019-04-23T05:30:09.961Z,11.50
2019-04-23T05:31:05.816Z,12.00
2019-04-23T05:31:58.175Z,11.20
2019-04-23T05:33:07.836Z,11.50
2019-04-23T05:34:04.573Z,11.80
2019-04-23T05:35:07.999Z,11.80
2019-04-23T05:36:13.078Z,11.80
2019-04-23T05:37:00.315Z,11.80
2019-04-23T05:38:29.228Z,11.40
2019-04-23T05:39:12.190Z,11.50
2019-04-23T05:40:08.692Z,12.00
2019-04-23T05:41:11.613Z,11.80
2019-04-23T05:41:59.298Z,11.90
2019-04-23T05:43:08.615Z,12.00
2019-04-23T05:44:02.029Z,11.40
2019-04-23T05:46:04.733Z,11.30
2019-04-23T05:47:13.283Z,11.90
2019-04-23T05:48:06.769Z,11.20
2019-04-23T05:49:09.279Z,11.50
2019-04-23T05:50:10.049Z,12.20
2019-04-23T05:51:04.552Z,12.50
2019-04-23T05:52:14.820Z,12.00
2019-04-23T05:53:04.206Z,12.00
2019-04-23T05:53:58.019Z,11.60
2019-04-23T05:55:02.661Z,11.30
2019-04-23T05:56:01.552Z,12.00
2019-04-23T05:58:00.524Z,12.10
2019-04-23T05:59:07.284Z,11.90
2019-04-23T06:00:04.053Z,11.00
2019-04-23T06:01:08.670Z,11.80
2019-04-23T06:02:09.730Z,10.70
2019-04-23T06:03:04.819Z,12.10
2019-04-23T06:05:05.123Z,11.70
2019-04-23T06:06:08.144Z,11.20
2019-04-23T06:07:15.031Z,11.90
2019-04-23T06:08:07.364Z,11.60
2019-04-23T06:11:02.447Z,12.20
2019-04-23T06:12:57.716Z,11.20
2019-04-23T06:14:09.728Z,11.90
2019-04-23T06:14:57.482Z,12.10
2019-04-23T06:15:59.578Z,11.80
2019-04-23T06:17:12.952Z,11.50
2019-04-23T06:20:05.840Z,11.40
2019-04-23T06:21:05.640Z,12.00
2019-04-23T06:22:06.014Z,12.00
2019-04-23T06:23:05.491Z,11.80
2019-04-23T06:24:13.162Z,11.00
2019-04-23T06:25:01.700Z,11.60
2019-04-23T06:26:24.291Z,11.40
2019-04-23T06:28:05.107Z,11.00
2019-04-23T06:29:06.299Z,11.50
2019-04-23T06:30:19.237Z,11.30
2019-04-23T06:31:04.619Z,11.50
2019-04-23T06:32:12.973Z,11.30
2019-04-23T06:33:04.287Z,10.70
2019-04-23T06:34:04.477Z,11.60
2019-04-23T06:34:56.717Z,11.00
2019-04-23T06:36:05.203Z,11.30
2019-04-23T06:37:02.203Z,11.30
2019-04-23T06:38:22.119Z,11.50
2019-04-23T06:40:00.393Z,10.80
2019-04-23T06:41:00.749Z,11.50
2019-04-23T06:42:03.884Z,11.20
2019-04-23T06:42:57.872Z,10.90
2019-04-23T06:44:07.500Z,11.70
2019-04-23T06:44:59.973Z,11.20
2019-04-23T06:46:01.568Z,11.20
2019-04-23T06:47:03.116Z,11.60
2019-04-23T06:48:01.887Z,11.00
2019-04-23T06:49:02.407Z,11.50
2019-04-23T06:50:01.592Z,10.90
2019-04-23T06:51:09.214Z,11.10
2019-04-23T06:52:10.468Z,10.60
2019-04-23T06:52:54.478Z,10.50
2019-04-23T06:53:57.994Z,10.20
2019-04-23T06:56:06.649Z,10.40
2019-04-23T06:57:09.041Z,10.70
2019-04-23T06:58:06.351Z,10.30
2019-04-23T06:59:02.621Z,10.40
2019-04-23T07:00:13.974Z,10.70
2019-04-23T07:01:03.353Z,10.30
2019-04-23T07:02:06.378Z,10.90
2019-04-23T07:03:00.261Z,10.90
2019-04-23T07:06:13.834Z,10.10
2019-04-23T07:07:29.660Z,9.90
2019-04-23T07:08:04.414Z,10.30
2019-04-23T07:09:59.371Z,10.10
2019-04-23T07:11:11.506Z,9.80
2019-04-23T07:11:55.548Z,10.20
2019-04-23T07:13:06.355Z,10.00
2019-04-23T07:13:58.353Z,10.40
2019-04-23T07:15:11.628Z,9.80
2019-04-23T07:16:01.128Z,10.00
2019-04-23T07:16:58.924Z,9.70
2019-04-23T07:17:58.780Z,10.10
2019-04-23T07:19:04.649Z,10.10
2019-04-23T07:20:02.705Z,9.80
2019-04-23T07:21:06.528Z,10.00
2019-04-23T07:22:09.113Z,10.30
2019-04-23T07:23:04.871Z,9.50
2019-04-23T07:25:00.120Z,9.70
2019-04-23T07:26:06.298Z,10.10
2019-04-23T07:26:55.767Z,9.50
2019-04-23T07:28:07.130Z,9.50
2019-04-23T07:28:59.974Z,9.30
2019-04-23T07:30:11.533Z,9.70
2019-04-23T07:31:07.484Z,9.70
2019-04-23T07:32:05.906Z,9.30
2019-04-23T07:33:04.534Z,9.30
2019-04-23T07:36:58.794Z,9.70
2019-04-23T07:38:05.865Z,9.90
2019-04-23T07:39:11.763Z,9.60
2019-04-23T07:40:18.046Z,9.20
2019-04-23T07:41:05.697Z,9.60
2019-04-23T07:42:27.724Z,9.60
2019-04-23T07:43:03.258Z,9.30
2019-04-23T07:44:07.805Z,9.60
2019-04-23T07:45:02.401Z,9.50
2019-04-23T07:46:02.211Z,9.60
2019-04-23T07:47:11.723Z,9.40
2019-04-23T07:48:06.801Z,8.80
2019-04-23T07:48:56.437Z,9.30
2019-04-23T07:50:11.078Z,10.00
2019-04-23T07:50:57.981Z,9.50
2019-04-23T07:52:06.224Z,10.00
2019-04-23T07:53:08.005Z,9.00
2019-04-23T07:54:12.803Z,9.10
2019-04-23T07:56:02.289Z,9.30
2019-04-23T07:57:08.717Z,9.80
2019-04-23T07:58:12.311Z,8.70
2019-04-23T07:59:03.973Z,9.30
2019-04-23T08:00:00.889Z,9.40
2019-04-23T08:01:13.729Z,9.20
2019-04-23T08:02:06.238Z,9.30
2019-04-23T08:03:08.601Z,9.50
2019-04-23T08:04:16.922Z,9.40
2019-04-23T08:05:11.700Z,9.60
2019-04-23T08:05:59.138Z,9.50
2019-04-23T08:07:01.283Z,8.80
2019-04-23T08:08:03.540Z,8.90
2019-04-23T08:09:03.985Z,8.90
2019-04-23T08:10:00.693Z,9.10
2019-04-23T08:11:25.919Z,8.90
2019-04-23T08:12:02.997Z,9.10
2019-04-23T08:13:00.922Z,8.70
2019-04-23T08:14:04.897Z,8.60
2019-04-23T08:14:59.744Z,9.00
2019-04-23T08:16:06.933Z,9.30
2019-04-23T08:16:58.105Z,8.70
2019-04-23T08:18:01.908Z,9.40
2019-04-23T08:18:59.082Z,8.90
2019-04-23T08:19:59.661Z,8.80
2019-04-23T08:21:01.082Z,9.40
2019-04-23T08:22:06.651Z,9.00
2019-04-23T08:23:03.860Z,9.30
2019-04-23T08:26:13.534Z,8.60
2019-04-23T08:26:59.660Z,9.00
2019-04-23T08:28:01.735Z,9.30
2019-04-23T08:29:03.626Z,9.80
2019-04-23T08:29:58.019Z,8.30
2019-04-23T08:30:59.118Z,8.90
2019-04-23T08:32:03.569Z,8.80
2019-04-23T08:32:52.586Z,9.10
2019-04-23T08:34:05.653Z,9.10
2019-04-23T08:35:04.440Z,8.60
2019-04-23T08:36:09.459Z,8.50
2019-04-23T08:37:04.944Z,8.00
2019-04-23T08:38:09.484Z,9.30
2019-04-23T08:38:56.893Z,8.80
2019-04-23T08:39:52.139Z,9.10
2019-04-23T08:41:14.229Z,8.50
2019-04-23T08:42:21.670Z,9.10
2019-04-23T08:43:03.621Z,9.40
2019-04-23T08:43:57.340Z,9.00
2019-04-23T08:45:58.062Z,9.20
2019-04-23T08:47:05.472Z,8.70
2019-04-23T08:48:09.029Z,8.60
2019-04-23T08:49:03.298Z,9.00
2019-04-23T08:50:01.337Z,9.30
2019-04-23T08:51:08.153Z,9.10
2019-04-23T08:53:05.720Z,9.10
2019-04-23T08:54:03.030Z,8.40
2019-04-23T08:55:05.394Z,8.90
2019-04-23T08:55:56.424Z,8.70
2019-04-23T08:57:04.015Z,9.00
2019-04-23T08:57:58.109Z,9.50
2019-04-23T08:58:57.686Z,9.30
2019-04-23T08:59:55.903Z,8.60
2019-04-23T09:01:03.806Z,9.30
2019-04-23T09:02:18.930Z,8.80
2019-04-23T09:03:06.325Z,9.20
2019-04-23T09:04:00.405Z,8.60
2019-04-23T09:05:02.605Z,8.90
2019-04-23T09:07:09.611Z,9.10
2019-04-23T09:08:07.026Z,9.10
2019-04-23T09:08:58.557Z,8.90
2019-04-23T09:10:07.800Z,8.70
2019-04-23T09:11:30.880Z,9.50
2019-04-23T09:11:58.103Z,9.00
2019-04-23T09:13:26.144Z,8.60
2019-04-23T09:13:55.624Z,8.70
2019-04-23T09:15:04.008Z,8.40
2019-04-23T09:15:59.942Z,9.00
2019-04-23T09:17:06.670Z,8.60
2019-04-23T09:18:06.237Z,9.00
2019-04-23T09:19:03.941Z,9.50
2019-04-23T09:20:55.237Z,8.80
2019-04-23T09:22:10.941Z,8.90
2019-04-23T09:22:59.684Z,9.10
2019-04-23T09:23:59.057Z,8.50
2019-04-23T09:25:06.294Z,9.60
2019-04-23T09:26:00.845Z,9.00
2019-04-23T09:27:05.547Z,8.80
2019-04-23T09:28:02.858Z,9.40
2019-04-23T09:28:56.777Z,9.10
2019-04-23T09:30:07.056Z,8.70
2019-04-23T09:31:05.180Z,8.90
2019-04-23T09:32:59.982Z,9.10
2019-04-23T09:33:58.682Z,8.50
2019-04-23T09:35:08.529Z,9.10
2019-04-23T09:36:01.472Z,9.00
2019-04-23T09:37:06.142Z,9.40
2019-04-23T09:38:05.195Z,8.90
2019-04-23T09:39:00.271Z,8.40
2019-04-23T09:40:13.975Z,9.20
2019-04-23T09:41:09.858Z,9.00
2019-04-23T09:42:07.090Z,9.40
2019-04-23T09:43:00.429Z,9.00
2019-04-23T09:44:03.287Z,8.80
2019-04-23T09:45:15.798Z,9.20
2019-04-23T09:46:08.385Z,9.70
2019-04-23T09:49:09.572Z,9.50
2019-04-23T09:50:01.264Z,9.60
2019-04-23T09:52:03.678Z,9.50
2019-04-23T09:54:02.901Z,8.50
2019-04-23T09:55:11.390Z,9.30
2019-04-23T09:55:53.081Z,9.00
2019-04-23T09:57:14.042Z,9.30
2019-04-23T09:58:03.171Z,9.20
2019-04-23T09:59:01.206Z,9.20
2019-04-23T09:59:58.162Z,9.10
2019-04-23T10:00:54.670Z,9.10
2019-04-23T10:01:52.928Z,9.10
2019-04-23T10:02:47.326Z,9.10
2019-04-23T10:03:42.549Z,9.40
2019-04-23T10:04:48.767Z,8.30
2019-04-23T10:05:45.107Z,7.90
2019-04-23T10:06:33.434Z,9.20
2019-04-23T10:07:46.206Z,9.30
2019-04-23T10:08:39.775Z,9.10
2019-04-23T10:09:32.343Z,8.50
2019-04-23T10:10:32.484Z,9.00
2019-04-23T10:11:32.369Z,8.70
2019-04-23T10:12:32.146Z,9.20
2019-04-23T10:13:31.655Z,8.50
2019-04-23T10:14:32.406Z,8.80
2019-04-23T10:15:36.354Z,9.00
2019-04-23T10:16:34.231Z,9.00
2019-04-23T10:17:31.935Z,8.70
2019-04-23T10:18:31.055Z,8.50
2019-04-23T10:19:30.943Z,9.50
2019-04-23T10:20:30.975Z,9.10
2019-04-23T10:21:31.278Z,9.10
2019-04-23T10:22:34.028Z,8.90
2019-04-23T10:23:31.545Z,9.40
2019-04-23T10:24:31.075Z,9.40
2019-04-23T10:25:31.956Z,9.20
2019-04-23T10:26:32.242Z,9.00
2019-04-23T10:27:30.859Z,9.00
2019-04-23T10:28:31.770Z,9.20
2019-04-23T10:29:31.935Z,8.60
2019-04-23T10:30:31.216Z,9.90
2019-04-23T10:31:31.526Z,9.00
2019-04-23T10:32:31.803Z,9.90
2019-04-23T10:33:31.883Z,9.30
2019-04-23T10:34:43.038Z,8.40
2019-04-23T10:35:41.095Z,8.60
2019-04-23T10:36:32.506Z,9.20
2019-04-23T10:37:41.906Z,9.00
2019-04-23T10:38:32.723Z,9.30
2019-04-23T10:39:35.792Z,9.50
2019-04-23T10:40:35.847Z,9.30
2019-04-23T10:41:32.688Z,9.00
2019-04-23T10:42:33.294Z,9.00
2019-04-23T10:43:31.552Z,9.50
2019-04-23T10:44:32.693Z,9.20
2019-04-23T10:45:44.650Z,9.10
2019-04-23T10:48:07.483Z,9.40
2019-04-23T10:49:00.656Z,8.70
2019-04-23T10:50:00.712Z,9.00
2019-04-23T10:50:59.698Z,9.10
2019-04-23T10:52:07.604Z,8.80
2019-04-23T10:53:13.254Z,8.90
2019-04-23T10:54:07.281Z,9.00
2019-04-23T10:55:02.649Z,9.30
2019-04-23T10:56:21.202Z,9.60
2019-04-23T10:56:59.848Z,9.00
2019-04-23T10:58:01.219Z,8.50
2019-04-23T10:58:54.424Z,8.70
2019-04-23T11:00:59.998Z,8.40
2019-04-23T11:02:21.689Z,8.40
2019-04-23T11:03:15.859Z,8.80
2019-04-23T11:04:10.551Z,9.00
2019-04-23T11:05:11.435Z,9.40
2019-04-23T11:07:07.208Z,9.30
2019-04-23T11:07:54.792Z,9.00
2019-04-23T11:09:06.375Z,9.50
2019-04-23T11:10:03.306Z,8.80
2019-04-23T11:10:58.748Z,8.80
2019-04-23T11:12:07.892Z,8.70
2019-04-23T11:12:50.746Z,9.10
2019-04-23T11:14:07.815Z,9.70
2019-04-23T11:15:08.636Z,9.00
2019-04-23T11:16:24.840Z,8.80
2019-04-23T11:17:17.106Z,8.40
2019-04-23T11:17:59.344Z,8.40
2019-04-23T11:19:15.455Z,9.20
2019-04-23T11:20:11.261Z,8.40
2019-04-23T11:21:00.921Z,8.50
2019-04-23T11:22:20.721Z,8.80
2019-04-23T11:23:09.178Z,8.80
2019-04-23T11:24:01.680Z,8.70
2019-04-23T11:25:15.221Z,9.20
2019-04-23T11:26:03.369Z,8.50
2019-04-23T11:27:00.559Z,8.60
2019-04-23T11:29:02.103Z,8.30
2019-04-23T11:30:10.643Z,8.60
2019-04-23T11:30:55.312Z,8.30
2019-04-23T11:32:11.692Z,7.80
2019-04-23T11:34:12.529Z,9.00
2019-04-23T11:35:11.135Z,8.10
2019-04-23T11:36:22.157Z,8.80
2019-04-23T11:37:03.883Z,8.10
2019-04-23T11:38:32.283Z,8.40
2019-04-23T11:40:01.646Z,8.30
2019-04-23T11:41:02.007Z,8.10
2019-04-23T11:42:08.627Z,8.00
2019-04-23T11:43:08.763Z,8.30
2019-04-23T11:43:53.389Z,8.30
2019-04-23T11:45:28.137Z,8.90
2019-04-23T11:46:10.442Z,8.20
2019-04-23T11:47:44.181Z,8.40
2019-04-23T11:48:21.851Z,8.30
2019-04-23T11:49:20.308Z,8.70
2019-04-23T11:50:12.338Z,8.40
2019-04-23T11:52:21.167Z,8.70
2019-04-23T11:52:56.910Z,8.40
2019-04-23T11:54:03.472Z,7.90
2019-04-23T11:55:04.401Z,8.40
2019-04-23T11:56:07.102Z,7.80
2019-04-23T11:58:07.690Z,8.10
2019-04-23T11:59:06.916Z,8.50
2019-04-23T11:59:59.059Z,8.80
2019-04-23T12:01:11.094Z,8.10
2019-04-23T12:01:56.460Z,7.80
2019-04-23T12:02:54.326Z,8.40
2019-04-23T12:04:13.964Z,8.10
2019-04-23T12:05:21.709Z,8.20
2019-04-23T12:06:09.425Z,8.30
2019-04-23T12:07:00.111Z,8.50
2019-04-23T12:08:01.523Z,8.80
2019-04-23T12:08:56.597Z,8.40
2019-04-23T12:11:27.211Z,8.60
2019-04-23T12:12:55.551Z,8.40
2019-04-23T12:14:04.231Z,8.70
2019-04-23T12:14:51.276Z,8.00
2019-04-23T12:16:00.468Z,8.40
2019-04-23T12:17:15.333Z,8.40
2019-04-23T12:19:28.418Z,8.40
2019-04-23T12:20:02.875Z,8.60
2019-04-23T12:20:57.339Z,8.40
2019-04-23T12:22:01.182Z,9.10
2019-04-23T12:23:18.174Z,8.20
2019-04-23T12:24:07.227Z,8.60
2019-04-23T12:26:07.330Z,8.70
2019-04-23T12:27:01.001Z,8.10
2019-04-23T12:27:47.063Z,8.50
2019-04-23T12:28:57.610Z,8.50
2019-04-23T12:30:01.591Z,9.00
2019-04-23T12:31:17.373Z,8.80
2019-04-23T12:32:06.250Z,8.90
2019-04-23T12:34:09.710Z,7.90
2019-04-23T12:35:51.983Z,8.20
2019-04-23T12:36:56.896Z,7.90
2019-04-23T12:39:08.817Z,7.90
2019-04-23T12:40:11.549Z,8.80
2019-04-23T12:40:56.245Z,8.40
2019-04-23T12:42:01.725Z,8.90
2019-04-23T12:44:00.891Z,8.60
2019-04-23T12:45:11.364Z,8.80
2019-04-23T12:45:50.508Z,8.80
2019-04-23T12:47:07.026Z,8.30
2019-04-23T12:50:20.792Z,9.10
2019-04-23T12:51:17.499Z,8.40
2019-04-23T12:53:59.457Z,8.60
2019-04-23T12:55:10.190Z,8.60
2019-04-23T12:56:05.161Z,8.70
2019-04-23T12:57:09.020Z,8.80
2019-04-23T12:58:51.043Z,8.70
2019-04-23T13:00:03.055Z,8.90
2019-04-23T13:00:54.511Z,8.70
2019-04-23T13:02:03.386Z,8.50
2019-04-23T13:02:57.134Z,8.80
2019-04-23T13:03:55.966Z,9.00
2019-04-23T13:05:00.530Z,8.90
2019-04-23T13:05:50.488Z,8.60
2019-04-23T13:06:57.862Z,9.50
2019-04-23T13:09:22.040Z,9.50
2019-04-23T13:10:01.577Z,9.00
2019-04-23T13:11:01.254Z,9.50
2019-04-23T13:11:58.009Z,9.20
2019-04-23T13:13:01.442Z,8.70
2019-04-23T13:14:00.492Z,9.20
2019-04-23T13:15:53.620Z,8.80
2019-04-23T13:17:25.220Z,8.50
2019-04-23T13:17:54.178Z,9.60
2019-04-23T13:19:03.584Z,9.70
2019-04-23T13:20:00.549Z,9.30
2019-04-23T13:21:02.091Z,8.80
2019-04-23T13:22:16.573Z,9.30
2019-04-23T13:23:03.094Z,9.20
2019-04-23T13:23:55.584Z,10.20
2019-04-23T13:25:01.996Z,9.10
2019-04-23T13:26:48.829Z,9.80
2019-04-23T13:28:01.948Z,9.80
2019-04-23T13:28:52.876Z,9.60
2019-04-23T13:30:16.652Z,9.40
2019-04-23T13:31:59.178Z,9.10
2019-04-23T13:33:03.108Z,9.00
2019-04-23T13:34:13.505Z,9.10
2019-04-23T13:35:11.184Z,8.80
2019-04-23T13:37:03.099Z,9.10
2019-04-23T13:37:58.999Z,9.50
2019-04-23T13:38:58.425Z,9.00
2019-04-23T13:40:17.346Z,8.50
2019-04-23T13:41:01.750Z,8.60
2019-04-23T13:41:52.485Z,8.90
2019-04-23T13:43:00.944Z,9.70
2019-04-23T13:43:49.484Z,9.30
2019-04-23T13:45:05.257Z,9.90
2019-04-23T13:47:00.515Z,10.20
2019-04-23T13:48:01.190Z,9.50
2019-04-23T13:48:58.863Z,10.40
2019-04-23T13:50:33.282Z,10.60
2019-04-23T13:51:00.234Z,9.60
2019-04-23T13:51:58.700Z,9.40
2019-04-23T13:53:53.551Z,9.40
2019-04-23T13:55:10.981Z,10.00
2019-04-23T13:55:56.559Z,9.10
2019-04-23T13:57:36.402Z,9.90
2019-04-23T13:58:09.114Z,9.40
2019-04-23T13:59:16.665Z,9.50
2019-04-23T13:59:56.211Z,10.20
2019-04-23T14:01:22.829Z,10.20
2019-04-23T14:01:58.580Z,10.30
2019-04-23T14:02:54.524Z,10.40
2019-04-23T14:03:54.093Z,9.60
2019-04-23T14:04:59.726Z,10.70
2019-04-23T14:06:01.786Z,10.70
2019-04-23T14:06:59.506Z,10.50
2019-04-23T14:07:59.663Z,10.20
2019-04-23T14:10:06.626Z,9.80
2019-04-23T14:10:55.417Z,9.80
2019-04-23T14:11:51.227Z,10.50
2019-04-23T14:13:15.002Z,9.70
2019-04-23T14:14:21.948Z,10.30
2019-04-23T14:17:02.610Z,10.80
2019-04-23T14:18:22.681Z,10.60
2019-04-23T14:20:04.165Z,9.90
2019-04-23T14:20:58.983Z,10.60
2019-04-23T14:22:13.718Z,10.00
2019-04-23T14:23:08.351Z,9.70
2019-04-23T14:24:08.220Z,10.40
2019-04-23T14:26:10.998Z,10.10
2019-04-23T14:26:59.187Z,10.10
2019-04-23T14:28:08.061Z,10.10
2019-04-23T14:28:55.292Z,9.90
2019-04-23T14:30:07.217Z,10.30
2019-04-23T14:30:59.159Z,10.20
2019-04-23T14:32:04.405Z,10.10
2019-04-23T14:33:00.945Z,9.70
2019-04-23T14:35:21.308Z,10.50
2019-04-23T14:36:05.371Z,10.30
2019-04-23T14:37:04.151Z,9.50
2019-04-23T14:38:15.905Z,9.60
2019-04-23T14:38:57.483Z,10.20
2019-04-23T14:40:10.998Z,10.10
2019-04-23T14:41:16.519Z,9.80
2019-04-23T14:42:14.532Z,9.90
2019-04-23T14:44:03.104Z,10.10
2019-04-23T14:45:13.852Z,10.00
2019-04-23T14:46:23.092Z,10.30
2019-04-23T14:48:05.870Z,10.10
2019-04-23T14:48:57.666Z,9.60
2019-04-23T14:50:23.993Z,9.70
2019-04-23T14:50:56.907Z,10.00
2019-04-23T14:52:02.468Z,9.40
2019-04-23T14:53:10.609Z,10.20
2019-04-23T14:54:02.999Z,10.10
2019-04-23T14:55:36.210Z,9.60
2019-04-23T14:57:08.653Z,10.10
2019-04-23T14:59:01.641Z,9.90
2019-04-23T15:00:03.417Z,9.40
2019-04-23T15:01:17.732Z,9.90
2019-04-23T15:01:58.230Z,9.10
2019-04-23T15:04:59.440Z,9.40
2019-04-23T15:07:00.722Z,9.20
2019-04-23T15:08:02.197Z,8.80
2019-04-23T15:09:06.209Z,9.30
2019-04-23T15:10:01.519Z,9.50
2019-04-23T15:12:02.053Z,9.80
2019-04-23T15:12:59.932Z,9.40
2019-04-23T15:13:55.299Z,9.20
2019-04-23T15:16:08.092Z,9.40
2019-04-23T15:17:00.118Z,9.10
2019-04-23T15:17:57.606Z,9.60
2019-04-23T15:19:10.993Z,9.40
2019-04-23T15:19:58.136Z,10.10
2019-04-23T15:21:12.435Z,9.80
2019-04-23T15:22:04.832Z,9.70
2019-04-23T15:25:07.013Z,9.80
2019-04-23T15:26:37.302Z,10.50
2019-04-23T15:27:15.902Z,9.80
2019-04-23T15:28:38.545Z,9.00
2019-04-23T15:29:47.624Z,9.60
2019-04-23T15:31:05.126Z,9.30
2019-04-23T15:33:19.888Z,10.20
2019-04-23T15:34:10.850Z,9.40
2019-04-23T15:35:10.432Z,9.90
2019-04-23T15:36:12.772Z,9.40
2019-04-23T15:39:13.884Z,8.90